Craigencallie, United Kingdom
Current Conditions -  °F | °C
As of 6:50 AM on Saturday 25 Oct 2014 (Local Time) from EGPK Reporting Station
Light Rain Light Rain  
Wind Chill: 50°   Ceiling: 2500
Heat Index: 50°   Visibility: 6mi
Dew Point: 46°   Wind: 15mph
Humidity: 87%   Direction: NA
Pressure: 29.71"   Gusts: NA
Location:  55.07°N, 4.34°W
Report Text: EGPK 250550Z VRB13KT 9999 -RA BKN025 10/08 Q1006
Loading
Personal Weather Stations






























Interactive Weather Map
Tropical Storm Tracking
New forecast layout! Learn more

10-Day Weather Forecast

Advertisements
Track Severe Weather on mobile